Time;durP1;ratioP1;P1;durP2;ratioP2;P2;SDS_P1;SDS_P2;PMS_P1;PMS_P2;Temp;Humidity;BMP_temperature;BMP_pressure;BME280_temperature;BME280_humidity;BME280_pressure;Samples;Min_cycle;Max_cycle;Signal;HPM_P1;HPM_P2
2021/12/27 00:00:31;;;;;;;0.25;0.13;;;;;;;;;;4215165;28;20484;-34
2021/12/27 00:02:32;;;;;;;0.55;0.38;;;;;;;;;;4215048;28;20055;-34
2021/12/27 00:04:32;;;;;;;0.52;0.32;;;;;;;;;;4215129;28;20091;-34
2021/12/27 00:06:33;;;;;;;0.20;0.20;;;;;;;;;;4214928;28;20074;-34
2021/12/27 00:08:34;;;;;;;0.50;0.30;;;;;;;;;;4214237;28;20174;-34
2021/12/27 00:10:35;;;;;;;0.20;0.20;;;;;;;;;;4197229;28;20135;-34
2021/12/27 00:12:36;;;;;;;0.52;0.20;;;;;;;;;;4214716;28;20052;-34
2021/12/27 00:14:37;;;;;;;0.30;0.30;;;;;;;;;;4214812;28;20060;-34
2021/12/27 00:16:38;;;;;;;0.20;0.20;;;;;;;;;;4214718;28;20054;-34
2021/12/27 00:18:39;;;;;;;0.20;0.20;;;;;;;;;;4214711;28;20134;-34
2021/12/27 00:20:39;;;;;;;0.47;0.20;;;;;;;;;;4214657;28;20046;-34
2021/12/27 00:22:41;;;;;;;0.32;0.30;;;;;;;;;;4214361;28;20108;-34
2021/12/27 00:24:46;;;;;;;0.68;0.30;;;;;;;;;;4214540;28;20059;-35
2021/12/27 00:26:48;;;;;;;0.55;0.30;;;;;;;;;;4214795;28;20063;-34
2021/12/27 00:29:04;;;;;;;0.20;0.20;;;;;;;;;;4198898;28;20352;-35
2021/12/27 00:31:05;;;;;;;0.50;0.30;;;;;;;;;;4214427;28;20051;-34
2021/12/27 00:33:05;;;;;;;0.47;0.25;;;;;;;;;;4214324;28;20094;-34
2021/12/27 00:35:07;;;;;;;0.57;0.30;;;;;;;;;;4214500;28;20449;-35
2021/12/27 00:37:09;;;;;;;0.55;0.40;;;;;;;;;;4213943;28;20052;-34
2021/12/27 00:39:10;;;;;;;0.10;0.10;;;;;;;;;;4214607;28;20181;-34
2021/12/27 00:41:11;;;;;;;0.43;0.40;;;;;;;;;;4214441;28;20048;-34
2021/12/27 00:43:12;;;;;;;0.20;0.20;;;;;;;;;;4214252;28;20470;-33
2021/12/27 00:45:13;;;;;;;0.32;0.20;;;;;;;;;;4196283;28;20044;-34
2021/12/27 00:47:14;;;;;;;0.38;0.30;;;;;;;;;;4196281;28;20048;-34
2021/12/27 00:49:15;;;;;;;0.20;0.20;;;;;;;;;;4214404;28;20128;-34
2021/12/27 00:51:16;;;;;;;0.68;0.32;;;;;;;;;;4196271;28;20148;-34
2021/12/27 00:53:17;;;;;;;0.73;0.30;;;;;;;;;;4214104;28;20051;-34
2021/12/27 00:55:18;;;;;;;0.35;0.25;;;;;;;;;;4196497;28;20497;-33
2021/12/27 00:57:20;;;;;;;0.32;0.30;;;;;;;;;;4214212;28;20055;-33
2021/12/27 00:59:21;;;;;;;0.47;0.32;;;;;;;;;;4214407;28;20048;-34
2021/12/27 01:01:22;;;;;;;0.32;0.30;;;;;;;;;;4214295;28;20097;-33
2021/12/27 01:03:23;;;;;;;0.20;0.20;;;;;;;;;;4213937;28;20490;-33
2021/12/27 01:05:25;;;;;;;0.30;0.20;;;;;;;;;;4213947;28;20052;-33
2021/12/27 01:07:26;;;;;;;0.20;0.20;;;;;;;;;;4213772;28;20056;-34
2021/12/27 01:14:12;;;;;;;0.60;0.30;;;;;;;;;;4196235;28;20095;-34
2021/12/27 01:16:14;;;;;;;0.22;0.22;;;;;;;;;;4213859;28;20052;-34
2021/12/27 01:18:16;;;;;;;0.32;0.30;;;;;;;;;;4213739;28;20052;-34
2021/12/27 01:20:18;;;;;;;0.35;0.30;;;;;;;;;;4213943;28;20051;-34
2021/12/27 01:22:21;;;;;;;0.20;0.20;;;;;;;;;;4213354;28;20048;-34
2021/12/27 01:24:22;;;;;;;0.20;0.20;;;;;;;;;;4213729;28;20064;-34
2021/12/27 01:26:25;;;;;;;0.68;0.30;;;;;;;;;;4213718;28;20103;-34
2021/12/27 01:28:26;;;;;;;0.30;0.30;;;;;;;;;;4213817;28;20452;-35
2021/12/27 01:30:28;;;;;;;0.22;0.20;;;;;;;;;;4196070;28;20057;-34
2021/12/27 01:32:34;;;;;;;0.30;0.25;;;;;;;;;;4213786;28;20052;-34
2021/12/27 01:34:35;;;;;;;0.20;0.20;;;;;;;;;;4213878;28;20052;-34
2021/12/27 01:36:36;;;;;;;0.47;0.40;;;;;;;;;;4213825;28;20634;-35
2021/12/27 01:38:39;;;;;;;0.20;0.20;;;;;;;;;;4213132;28;20422;-34
2021/12/27 01:40:42;;;;;;;0.50;0.40;;;;;;;;;;4213949;28;20089;-34
2021/12/27 01:42:58;;;;;;;0.57;0.40;;;;;;;;;;4213703;28;20113;-33
2021/12/27 01:44:59;;;;;;;0.43;0.35;;;;;;;;;;4215253;28;20400;-34
2021/12/27 01:47:00;;;;;;;0.60;0.32;;;;;;;;;;4200938;28;20059;-34
2021/12/27 01:49:01;;;;;;;1.05;0.50;;;;;;;;;;4219128;28;20055;-34
2021/12/27 01:51:03;;;;;;;0.30;0.28;;;;;;;;;;4219155;28;20160;-35
2021/12/27 01:53:04;;;;;;;0.47;0.30;;;;;;;;;;4218593;28;20058;-34
2021/12/27 01:55:05;;;;;;;0.43;0.40;;;;;;;;;;4200999;28;20512;-35
2021/12/27 01:57:06;;;;;;;0.30;0.30;;;;;;;;;;4219022;28;20044;-34
2021/12/27 01:59:07;;;;;;;0.20;0.20;;;;;;;;;;4219201;28;20105;-34
2021/12/27 02:01:09;;;;;;;0.40;0.30;;;;;;;;;;4219281;28;20052;-34
2021/12/27 02:03:12;;;;;;;0.45;0.35;;;;;;;;;;4219247;28;20043;-34
2021/12/27 02:05:14;;;;;;;0.43;0.40;;;;;;;;;;4206378;28;20381;-35
2021/12/27 02:07:15;;;;;;;0.25;0.20;;;;;;;;;;4185289;28;20048;-34
2021/12/27 02:09:24;;;;;;;0.22;0.22;;;;;;;;;;4168140;28;20140;-34
2021/12/27 02:11:26;;;;;;;0.20;0.20;;;;;;;;;;4185740;28;20048;-34
2021/12/27 02:13:27;;;;;;;0.30;0.30;;;;;;;;;;4185623;28;20049;-34
2021/12/27 02:15:28;;;;;;;0.55;0.35;;;;;;;;;;4185974;28;20053;-33
2021/12/27 02:17:29;;;;;;;0.43;0.30;;;;;;;;;;4185520;28;20044;-34
2021/12/27 02:19:30;;;;;;;0.30;0.30;;;;;;;;;;4168008;28;20057;-34
2021/12/27 02:21:31;;;;;;;0.20;0.20;;;;;;;;;;4185708;28;20123;-34
2021/12/27 02:23:32;;;;;;;0.32;0.22;;;;;;;;;;4191864;28;20049;-34
2021/12/27 02:25:34;;;;;;;0.30;0.30;;;;;;;;;;4202083;28;20052;-34
2021/12/27 02:27:35;;;;;;;0.50;0.30;;;;;;;;;;4202043;28;20476;-34
2021/12/27 02:29:36;;;;;;;0.20;0.20;;;;;;;;;;4202263;28;20059;-34
2021/12/27 02:31:40;;;;;;;0.63;0.40;;;;;;;;;;4201980;28;20057;-34
2021/12/27 02:33:43;;;;;;;0.25;0.20;;;;;;;;;;4202340;28;20055;-34
2021/12/27 02:35:44;;;;;;;0.25;0.25;;;;;;;;;;4201869;28;20495;-34
2021/12/27 02:37:46;;;;;;;0.65;0.30;;;;;;;;;;4201758;28;20049;-34
2021/12/27 02:39:47;;;;;;;0.30;0.28;;;;;;;;;;4201909;28;20052;-34
2021/12/27 02:41:48;;;;;;;0.15;0.15;;;;;;;;;;4201784;28;20105;-34
2021/12/27 02:43:49;;;;;;;0.70;0.32;;;;;;;;;;4198322;28;20111;-34
2021/12/27 02:45:51;;;;;;;0.30;0.30;;;;;;;;;;4185538;28;20056;-34
2021/12/27 02:47:52;;;;;;;0.40;0.30;;;;;;;;;;4185245;28;20045;-34
2021/12/27 02:49:53;;;;;;;0.20;0.20;;;;;;;;;;4167694;28;20464;-34
2021/12/27 02:51:54;;;;;;;0.55;0.20;;;;;;;;;;4184746;28;20101;-34
2021/12/27 02:53:55;;;;;;;0.35;0.32;;;;;;;;;;4185266;28;20084;-34
2021/12/27 02:55:57;;;;;;;0.25;0.20;;;;;;;;;;4183593;28;20185;-34
2021/12/27 02:57:58;;;;;;;0.20;0.20;;;;;;;;;;4181765;28;20053;-34
2021/12/27 03:00:00;;;;;;;0.60;0.20;;;;;;;;;;4182632;28;20102;-34
2021/12/27 03:02:01;;;;;;;0.30;0.30;;;;;;;;;;4165021;28;20103;-34
2021/12/27 03:04:02;;;;;;;0.25;0.20;;;;;;;;;;4164850;28;20408;-34
2021/12/27 03:06:04;;;;;;;0.50;0.30;;;;;;;;;;4182775;28;20057;-34
2021/12/27 03:08:05;;;;;;;0.30;0.30;;;;;;;;;;4182196;28;20053;-34
2021/12/27 03:10:08;;;;;;;0.28;0.20;;;;;;;;;;4182656;28;20052;-34
2021/12/27 03:12:12;;;;;;;0.30;0.20;;;;;;;;;;4182642;28;20060;-34
2021/12/27 03:14:13;;;;;;;0.20;0.20;;;;;;;;;;4182499;28;20389;-34
2021/12/27 03:16:15;;;;;;;0.20;0.20;;;;;;;;;;4182290;28;20095;-34
2021/12/27 03:18:16;;;;;;;0.40;0.30;;;;;;;;;;4182434;28;20123;-34
2021/12/27 03:20:18;;;;;;;0.20;0.20;;;;;;;;;;4182318;28;20057;-34
2021/12/27 03:22:19;;;;;;;0.38;0.30;;;;;;;;;;4181660;28;20045;-34
2021/12/27 03:24:22;;;;;;;0.43;0.30;;;;;;;;;;4195509;28;20052;-34
2021/12/27 03:26:23;;;;;;;0.20;0.10;;;;;;;;;;4198838;28;20061;-34
2021/12/27 03:28:24;;;;;;;0.20;0.20;;;;;;;;;;4197332;28;20559;-34
2021/12/27 03:30:26;;;;;;;0.28;0.20;;;;;;;;;;4198867;28;20461;-34
2021/12/27 03:32:29;;;;;;;0.30;0.30;;;;;;;;;;4198613;28;20466;-34
2021/12/27 03:34:33;;;;;;;0.85;0.40;;;;;;;;;;4199004;28;20059;-34
2021/12/27 03:36:38;;;;;;;0.28;0.20;;;;;;;;;;4198435;28;20048;-34
2021/12/27 03:38:39;;;;;;;0.35;0.30;;;;;;;;;;4198339;28;20102;-34
2021/12/27 03:40:40;;;;;;;0.38;0.30;;;;;;;;;;4198654;28;20094;-34
2021/12/27 03:42:41;;;;;;;0.20;0.20;;;;;;;;;;4198274;28;20424;-34
2021/12/27 03:44:42;;;;;;;0.52;0.30;;;;;;;;;;4208385;28;20048;-34
2021/12/27 03:46:43;;;;;;;0.40;0.30;;;;;;;;;;4215270;28;20051;-34
2021/12/27 03:48:44;;;;;;;0.40;0.20;;;;;;;;;;4215313;28;20059;-34
2021/12/27 03:50:45;;;;;;;0.30;0.30;;;;;;;;;;4215305;28;20048;-34
2021/12/27 03:52:46;;;;;;;0.28;0.20;;;;;;;;;;4214839;28;20055;-34
2021/12/27 03:54:47;;;;;;;0.57;0.30;;;;;;;;;;4215015;28;20484;-34
2021/12/27 03:56:48;;;;;;;0.30;0.30;;;;;;;;;;4214857;28;20094;-34
2021/12/27 03:58:59;;;;;;;0.30;0.30;;;;;;;;;;4215019;28;20135;-34
2021/12/27 04:03:01;;;;;;;0.32;0.25;;;;;;;;;;4214815;28;20476;-34
2021/12/27 04:05:03;;;;;;;0.40;0.40;;;;;;;;;;4215028;28;20124;-34
2021/12/27 04:07:04;;;;;;;0.65;0.30;;;;;;;;;;4213284;28;20060;-34
2021/12/27 04:09:05;;;;;;;0.20;0.15;;;;;;;;;;4214701;28;20044;-34
2021/12/27 04:11:06;;;;;;;0.20;0.20;;;;;;;;;;4215038;28;20478;-34
2021/12/27 04:13:08;;;;;;;0.30;0.30;;;;;;;;;;4214844;28;20169;-34
2021/12/27 04:15:09;;;;;;;0.30;0.30;;;;;;;;;;4214770;28;20111;-34
2021/12/27 04:17:10;;;;;;;0.20;0.20;;;;;;;;;;4214680;28;20048;-34
2021/12/27 04:19:11;;;;;;;0.40;0.20;;;;;;;;;;4214687;28;20085;-33
2021/12/27 04:21:12;;;;;;;0.20;0.20;;;;;;;;;;4213494;28;20448;-34
2021/12/27 04:23:13;;;;;;;0.40;0.22;;;;;;;;;;4218159;28;20483;-34
2021/12/27 04:25:15;;;;;;;0.30;0.30;;;;;;;;;;4231492;28;20051;-34
2021/12/27 04:27:16;;;;;;;0.10;0.10;;;;;;;;;;4231670;28;20051;-34
2021/12/27 04:29:17;;;;;;;0.40;0.20;;;;;;;;;;4231564;28;20051;-34
2021/12/27 04:31:18;;;;;;;0.20;0.20;;;;;;;;;;4231316;28;20054;-34
2021/12/27 04:33:19;;;;;;;0.30;0.30;;;;;;;;;;4213356;28;20060;-34
2021/12/27 04:35:21;;;;;;;0.10;0.10;;;;;;;;;;4231384;28;20056;-33
2021/12/27 04:37:23;;;;;;;0.30;0.20;;;;;;;;;;4230753;28;20403;-34
2021/12/27 04:39:24;;;;;;;0.30;0.30;;;;;;;;;;4231378;28;20100;-34
2021/12/27 04:41:25;;;;;;;0.28;0.28;;;;;;;;;;4231236;28;20483;-33
2021/12/27 04:43:26;;;;;;;0.40;0.30;;;;;;;;;;4230969;28;20117;-33
2021/12/27 04:45:27;;;;;;;0.20;0.20;;;;;;;;;;4231141;28;20058;-34
2021/12/27 04:47:28;;;;;;;0.10;0.10;;;;;;;;;;4230993;28;20384;-34
2021/12/27 04:49:30;;;;;;;0.30;0.28;;;;;;;;;;4231303;28;20058;-34
2021/12/27 04:51:31;;;;;;;0.20;0.20;;;;;;;;;;4231346;28;20047;-33
2021/12/27 04:53:32;;;;;;;0.20;0.20;;;;;;;;;;4230422;28;20047;-34
2021/12/27 04:55:36;;;;;;;0.50;0.38;;;;;;;;;;4230849;28;20193;-34
2021/12/27 04:57:37;;;;;;;0.40;0.40;;;;;;;;;;4230667;28;20193;-34
2021/12/27 04:59:38;;;;;;;0.20;0.20;;;;;;;;;;4230894;28;20380;-34
2021/12/27 05:01:39;;;;;;;0.30;0.30;;;;;;;;;;4230687;28;20094;-34
2021/12/27 05:03:40;;;;;;;0.63;0.30;;;;;;;;;;4231161;28;20100;-35
2021/12/27 05:05:44;;;;;;;0.20;0.20;;;;;;;;;;4230941;28;20381;-34
2021/12/27 05:07:46;;;;;;;0.20;0.20;;;;;;;;;;4230371;28;20051;-35
2021/12/27 05:09:47;;;;;;;0.30;0.22;;;;;;;;;;4230827;28;20059;-34
2021/12/27 05:11:48;;;;;;;0.95;0.50;;;;;;;;;;4230591;28;20097;-34
2021/12/27 05:13:49;;;;;;;0.30;0.30;;;;;;;;;;4230809;28;20047;-34
2021/12/27 05:15:50;;;;;;;2.15;0.50;;;;;;;;;;4230870;28;20104;-35
2021/12/27 05:17:51;;;;;;;0.63;0.20;;;;;;;;;;4230694;28;20196;-34
2021/12/27 05:19:51;;;;;;;0.30;0.30;;;;;;;;;;4212102;28;20407;-34
2021/12/27 05:21:52;;;;;;;0.32;0.30;;;;;;;;;;4230111;28;20143;-34
2021/12/27 05:23:53;;;;;;;0.30;0.30;;;;;;;;;;4212301;28;20048;-34
2021/12/27 05:25:54;;;;;;;0.57;0.30;;;;;;;;;;4230920;28;20055;-34
2021/12/27 05:27:55;;;;;;;0.52;0.40;;;;;;;;;;4219487;28;20074;-34
2021/12/27 05:29:56;;;;;;;0.52;0.43;;;;;;;;;;4214036;28;20177;-34
2021/12/27 05:32:01;;;;;;;0.73;0.55;;;;;;;;;;4213622;28;20048;-35
2021/12/27 05:34:02;;;;;;;0.30;0.30;;;;;;;;;;4213775;28;20056;-34
2021/12/27 05:36:03;;;;;;;1.42;0.70;;;;;;;;;;4213557;28;20548;-34
2021/12/27 05:38:04;;;;;;;0.45;0.30;;;;;;;;;;4213134;28;20052;-34
2021/12/27 05:40:10;;;;;;;0.50;0.40;;;;;;;;;;4195630;28;20377;-34
2021/12/27 05:42:11;;;;;;;3.90;0.63;;;;;;;;;;4213679;28;20101;-34
2021/12/27 05:44:12;;;;;;;0.47;0.40;;;;;;;;;;4213810;28;20056;-34
2021/12/27 05:46:14;;;;;;;0.90;0.30;;;;;;;;;;4213480;28;20101;-34
2021/12/27 05:48:15;;;;;;;0.40;0.30;;;;;;;;;;4213462;28;20479;-34
2021/12/27 05:50:17;;;;;;;0.30;0.30;;;;;;;;;;4213455;28;20522;-35
2021/12/27 05:52:18;;;;;;;0.52;0.40;;;;;;;;;;4213092;28;20082;-34
2021/12/27 05:54:20;;;;;;;0.45;0.40;;;;;;;;;;4213662;28;20048;-34
2021/12/27 05:56:21;;;;;;;0.40;0.30;;;;;;;;;;4213499;28;20051;-35
2021/12/27 05:58:22;;;;;;;0.30;0.30;;;;;;;;;;4213477;28;20052;-35
2021/12/27 06:00:23;;;;;;;0.50;0.38;;;;;;;;;;4195612;28;20098;-34
2021/12/27 06:02:24;;;;;;;0.30;0.30;;;;;;;;;;4213527;28;20097;-34
2021/12/27 06:04:25;;;;;;;0.32;0.30;;;;;;;;;;4213612;28;20083;-35
2021/12/27 06:06:26;;;;;;;0.63;0.38;;;;;;;;;;4213569;28;20118;-34
2021/12/27 06:08:27;;;;;;;0.40;0.40;;;;;;;;;;4212943;28;20433;-35
2021/12/27 06:10:28;;;;;;;0.52;0.40;;;;;;;;;;4195680;28;20044;-35
2021/12/27 06:12:29;;;;;;;0.40;0.40;;;;;;;;;;4213444;28;20105;-35
2021/12/27 06:14:30;;;;;;;0.98;0.35;;;;;;;;;;4213420;28;20052;-34
2021/12/27 06:16:31;;;;;;;0.52;0.50;;;;;;;;;;4213123;28;20091;-34
2021/12/27 06:18:32;;;;;;;0.35;0.32;;;;;;;;;;4213141;28;20056;-35
2021/12/27 06:20:33;;;;;;;0.55;0.40;;;;;;;;;;4213220;28;20099;-34
2021/12/27 06:22:35;;;;;;;0.30;0.30;;;;;;;;;;4212537;28;20185;-34
2021/12/27 06:24:36;;;;;;;0.57;0.32;;;;;;;;;;4178548;28;20543;-35
2021/12/27 06:26:37;;;;;;;0.60;0.45;;;;;;;;;;4213113;28;20052;-34
2021/12/27 06:28:38;;;;;;;0.30;0.30;;;;;;;;;;4213150;28;20178;-34
2021/12/27 06:30:41;;;;;;;0.35;0.30;;;;;;;;;;4195179;28;20055;-35
2021/12/27 06:32:43;;;;;;;0.82;0.45;;;;;;;;;;4198591;28;20052;-34
2021/12/27 06:34:44;;;;;;;0.90;0.43;;;;;;;;;;4216686;28;20056;-35
2021/12/27 06:36:45;;;;;;;0.30;0.30;;;;;;;;;;4215603;28;20059;-34
2021/12/27 06:38:46;;;;;;;0.68;0.47;;;;;;;;;;4216248;28;20684;-34
2021/12/27 06:40:50;;;;;;;0.30;0.30;;;;;;;;;;4216328;28;20094;-34
2021/12/27 06:42:51;;;;;;;0.35;0.32;;;;;;;;;;4216222;28;20044;-34
2021/12/27 06:44:52;;;;;;;0.30;0.30;;;;;;;;;;4216501;28;20052;-34
2021/12/27 06:46:56;;;;;;;0.40;0.40;;;;;;;;;;4216102;28;20085;-34
2021/12/27 06:48:57;;;;;;;0.43;0.40;;;;;;;;;;4216314;28;20048;-34
2021/12/27 06:50:58;;;;;;;0.25;0.25;;;;;;;;;;4216067;28;20052;-33
2021/12/27 06:52:59;;;;;;;0.55;0.40;;;;;;;;;;4215666;28;20056;-33
2021/12/27 06:55:00;;;;;;;0.70;0.40;;;;;;;;;;4216083;28;20052;-34
2021/12/27 06:57:01;;;;;;;0.45;0.40;;;;;;;;;;4215924;28;20365;-34
2021/12/27 06:59:02;;;;;;;0.25;0.20;;;;;;;;;;4216024;28;20123;-34
2021/12/27 07:01:03;;;;;;;0.73;0.32;;;;;;;;;;4215991;28;20098;-34
2021/12/27 07:03:04;;;;;;;0.38;0.32;;;;;;;;;;4215998;28;20043;-35
2021/12/27 07:05:06;;;;;;;0.75;0.40;;;;;;;;;;4216066;28;20526;-34
2021/12/27 07:07:07;;;;;;;0.40;0.30;;;;;;;;;;4215264;28;20060;-34
2021/12/27 07:09:08;;;;;;;0.65;0.35;;;;;;;;;;4215787;28;20483;-34
2021/12/27 07:11:09;;;;;;;0.30;0.30;;;;;;;;;;4215985;28;20091;-34
2021/12/27 07:13:10;;;;;;;0.52;0.40;;;;;;;;;;4215590;28;20125;-34
2021/12/27 07:15:10;;;;;;;0.30;0.20;;;;;;;;;;4215822;28;20095;-34
2021/12/27 07:17:11;;;;;;;0.73;0.40;;;;;;;;;;4215475;28;20101;-34
2021/12/27 07:19:12;;;;;;;0.38;0.38;;;;;;;;;;4215995;28;20090;-34
2021/12/27 07:21:13;;;;;;;0.70;0.40;;;;;;;;;;4215720;28;20077;-34
2021/12/27 07:23:14;;;;;;;0.75;0.40;;;;;;;;;;4196857;28;20115;-34
2021/12/27 07:25:16;;;;;;;0.77;0.40;;;;;;;;;;4215517;28;20044;-34
2021/12/27 07:27:17;;;;;;;0.20;0.20;;;;;;;;;;4213479;28;20048;-36
2021/12/27 07:29:18;;;;;;;0.32;0.30;;;;;;;;;;4188892;28;20120;-35
2021/12/27 07:31:19;;;;;;;0.47;0.30;;;;;;;;;;4196166;28;20110;-34
2021/12/27 07:33:20;;;;;;;2.47;0.35;;;;;;;;;;4198424;28;20048;-34
2021/12/27 07:35:21;;;;;;;0.40;0.40;;;;;;;;;;4197942;28;20060;-34
2021/12/27 07:37:22;;;;;;;0.20;0.20;;;;;;;;;;4197764;28;20052;-34
2021/12/27 07:39:24;;;;;;;0.50;0.40;;;;;;;;;;4198170;28;20087;-34
2021/12/27 07:41:25;;;;;;;0.50;0.30;;;;;;;;;;4197701;28;20525;-34
2021/12/27 07:43:26;;;;;;;0.55;0.40;;;;;;;;;;4196724;28;20036;-34
2021/12/27 07:45:27;;;;;;;0.40;0.40;;;;;;;;;;4198136;28;20083;-34
2021/12/27 07:47:28;;;;;;;0.98;0.40;;;;;;;;;;4197766;28;20053;-34
2021/12/27 07:49:29;;;;;;;0.30;0.30;;;;;;;;;;4197868;28;20112;-34
2021/12/27 07:51:30;;;;;;;0.30;0.30;;;;;;;;;;4199783;28;20052;-34
2021/12/27 07:53:31;;;;;;;0.47;0.25;;;;;;;;;;4197478;28;20044;-34
2021/12/27 07:55:32;;;;;;;0.30;0.30;;;;;;;;;;4198212;28;20109;-34
2021/12/27 07:57:33;;;;;;;0.52;0.22;;;;;;;;;;4198067;28;20338;-36
2021/12/27 07:59:34;;;;;;;0.80;0.30;;;;;;;;;;4198304;28;20045;-36
2021/12/27 08:01:36;;;;;;;0.55;0.40;;;;;;;;;;4197785;28;20136;-36
2021/12/27 08:03:37;;;;;;;0.30;0.30;;;;;;;;;;4197920;28;20040;-35
2021/12/27 08:05:38;;;;;;;0.30;0.30;;;;;;;;;;4197993;28;20044;-36
2021/12/27 08:07:39;;;;;;;0.52;0.32;;;;;;;;;;4187846;28;20094;-36
2021/12/27 08:09:40;;;;;;;0.60;0.30;;;;;;;;;;4194406;28;20541;-36
2021/12/27 08:11:41;;;;;;;0.73;0.55;;;;;;;;;;4197882;28;20160;-35
2021/12/27 08:13:42;;;;;;;0.30;0.30;;;;;;;;;;4201442;28;20052;-36
2021/12/27 08:15:43;;;;;;;1.27;0.50;;;;;;;;;;4215087;28;20192;-35
2021/12/27 08:17:44;;;;;;;0.47;0.32;;;;;;;;;;4213198;28;20083;-35
2021/12/27 08:19:47;;;;;;;0.28;0.28;;;;;;;;;;4195609;28;20049;-35
2021/12/27 08:21:48;;;;;;;0.25;0.25;;;;;;;;;;4197178;28;20464;-35
2021/12/27 08:23:49;;;;;;;0.30;0.30;;;;;;;;;;4206754;28;20047;-35
2021/12/27 08:25:50;;;;;;;0.47;0.30;;;;;;;;;;4196618;28;20090;-35
2021/12/27 08:27:51;;;;;;;0.55;0.20;;;;;;;;;;4196325;28;20067;-34
2021/12/27 08:29:52;;;;;;;0.30;0.30;;;;;;;;;;4214464;28;20549;-34
2021/12/27 08:31:53;;;;;;;0.50;0.30;;;;;;;;;;4213704;28;20111;-34
2021/12/27 08:33:54;;;;;;;1.00;0.40;;;;;;;;;;4214017;28;20185;-35
2021/12/27 08:35:56;;;;;;;0.32;0.32;;;;;;;;;;4214184;28;20070;-35
2021/12/27 08:37:57;;;;;;;1.73;0.30;;;;;;;;;;4213623;28;20051;-36
2021/12/27 08:39:59;;;;;;;0.20;0.20;;;;;;;;;;4213590;28;20044;-36
2021/12/27 08:42:01;;;;;;;0.32;0.32;;;;;;;;;;4220043;28;20108;-35
2021/12/27 08:44:04;;;;;;;0.55;0.28;;;;;;;;;;4231363;28;20100;-35
2021/12/27 08:46:05;;;;;;;1.15;0.25;;;;;;;;;;4207479;28;20052;-35
2021/12/27 08:48:06;;;;;;;0.40;0.40;;;;;;;;;;4212578;28;20349;-35
2021/12/27 08:50:08;;;;;;;0.20;0.20;;;;;;;;;;4218819;28;20096;-35
2021/12/27 08:52:09;;;;;;;0.30;0.30;;;;;;;;;;4230648;28;20051;-35
2021/12/27 08:54:10;;;;;;;0.43;0.30;;;;;;;;;;4226543;28;20054;-35
2021/12/27 08:56:11;;;;;;;0.50;0.40;;;;;;;;;;4214037;28;20091;-35
2021/12/27 08:58:12;;;;;;;0.30;0.30;;;;;;;;;;4214141;28;20189;-35
2021/12/27 09:00:15;;;;;;;0.30;0.30;;;;;;;;;;4214283;28;20462;-35
2021/12/27 09:02:15;;;;;;;0.30;0.30;;;;;;;;;;4214213;28;20052;-35
2021/12/27 09:04:16;;;;;;;0.47;0.32;;;;;;;;;;4195618;28;20052;-35
2021/12/27 09:06:17;;;;;;;0.47;0.47;;;;;;;;;;4213567;28;20105;-35
2021/12/27 09:08:18;;;;;;;0.40;0.28;;;;;;;;;;4212922;28;20090;-35
2021/12/27 09:10:19;;;;;;;0.35;0.25;;;;;;;;;;4217770;28;20044;-36
2021/12/27 09:12:21;;;;;;;0.20;0.20;;;;;;;;;;4213801;28;20090;-35
2021/12/27 09:14:21;;;;;;;1.15;0.30;;;;;;;;;;4214019;28;20044;-36
2021/12/27 09:16:22;;;;;;;0.50;0.30;;;;;;;;;;4213778;28;20136;-37
2021/12/27 09:18:23;;;;;;;0.40;0.40;;;;;;;;;;4213094;28;20051;-35
2021/12/27 09:20:26;;;;;;;0.20;0.20;;;;;;;;;;4195584;28;20087;-35
2021/12/27 09:22:27;;;;;;;0.20;0.20;;;;;;;;;;4213335;28;20056;-35
2021/12/27 09:24:28;;;;;;;0.28;0.20;;;;;;;;;;4209694;28;20067;-35
2021/12/27 09:26:29;;;;;;;0.20;0.20;;;;;;;;;;4211375;28;20048;-35
2021/12/27 09:28:31;;;;;;;0.40;0.40;;;;;;;;;;4205883;28;20048;-35
2021/12/27 09:30:32;;;;;;;0.30;0.30;;;;;;;;;;4210998;28;20052;-35
2021/12/27 09:32:33;;;;;;;0.40;0.30;;;;;;;;;;4199053;28;20467;-35
2021/12/27 09:34:34;;;;;;;0.38;0.28;;;;;;;;;;4212547;28;20433;-35
2021/12/27 09:36:35;;;;;;;0.20;0.20;;;;;;;;;;4197154;28;20048;-35
2021/12/27 09:38:35;;;;;;;0.40;0.32;;;;;;;;;;4195579;28;20377;-34
2021/12/27 09:40:37;;;;;;;0.30;0.30;;;;;;;;;;4197007;28;20053;-35
2021/12/27 09:42:38;;;;;;;0.20;0.20;;;;;;;;;;4199927;28;20098;-35
2021/12/27 09:44:39;;;;;;;1.45;0.22;;;;;;;;;;4198640;28;20055;-35
2021/12/27 09:46:40;;;;;;;0.40;0.32;;;;;;;;;;4211264;28;20487;-35
2021/12/27 09:48:42;;;;;;;0.50;0.40;;;;;;;;;;4196928;28;20048;-35
2021/12/27 09:50:45;;;;;;;0.30;0.30;;;;;;;;;;4209804;28;20121;-35
2021/12/27 09:52:48;;;;;;;0.32;0.30;;;;;;;;;;4212259;28;20055;-35
2021/12/27 09:54:48;;;;;;;0.22;0.22;;;;;;;;;;4208599;28;20044;-35
2021/12/27 09:56:50;;;;;;;0.20;0.20;;;;;;;;;;4212331;28;20098;-35
2021/12/27 09:58:53;;;;;;;0.47;0.47;;;;;;;;;;4202461;28;20043;-35
2021/12/27 10:00:58;;;;;;;0.30;0.22;;;;;;;;;;4185662;28;20041;-35
2021/12/27 10:03:00;;;;;;;0.40;0.30;;;;;;;;;;4197121;28;20052;-35
2021/12/27 10:05:03;;;;;;;0.30;0.30;;;;;;;;;;4196978;28;20049;-35
2021/12/27 10:07:06;;;;;;;0.40;0.40;;;;;;;;;;4199617;28;20044;-36
2021/12/27 10:09:08;;;;;;;0.35;0.28;;;;;;;;;;4204116;28;20052;-35
2021/12/27 10:11:31;;;;;;;0.20;0.20;;;;;;;;;;4214168;28;20480;-35
2021/12/27 10:13:32;;;;;;;0.98;0.30;;;;;;;;;;4202216;28;20491;-36
2021/12/27 10:15:35;;;;;;;0.30;0.30;;;;;;;;;;4201082;28;20052;-34
2021/12/27 10:17:37;;;;;;;0.63;0.47;;;;;;;;;;4214954;28;20052;-35
2021/12/27 10:19:39;;;;;;;0.40;0.40;;;;;;;;;;4216747;28;20048;-35
2021/12/27 10:21:41;;;;;;;0.40;0.40;;;;;;;;;;4216421;28;20044;-35
2021/12/27 10:23:43;;;;;;;0.45;0.32;;;;;;;;;;4204485;28;20389;-35
2021/12/27 10:25:47;;;;;;;0.45;0.30;;;;;;;;;;4205789;28;20041;-35
2021/12/27 10:27:49;;;;;;;1.58;0.22;;;;;;;;;;4204834;28;20059;-35
2021/12/27 10:29:50;;;;;;;0.30;0.30;;;;;;;;;;4193679;28;20116;-35
2021/12/27 10:31:56;;;;;;;0.30;0.30;;;;;;;;;;4216653;28;20235;-35
2021/12/27 10:33:57;;;;;;;0.28;0.28;;;;;;;;;;4216780;28;20060;-35
2021/12/27 10:35:58;;;;;;;0.70;0.30;;;;;;;;;;4215115;28;20090;-36
2021/12/27 10:38:11;;;;;;;1.02;0.30;;;;;;;;;;4200771;28;20056;-35
2021/12/27 10:40:12;;;;;;;0.30;0.30;;;;;;;;;;4198358;28;20048;-36
2021/12/27 10:42:15;;;;;;;0.70;0.30;;;;;;;;;;4183861;28;20497;-36
2021/12/27 10:44:18;;;;;;;0.50;0.50;;;;;;;;;;4216500;28;20105;-35
2021/12/27 10:46:20;;;;;;;0.43;0.30;;;;;;;;;;4216622;28;20089;-36
2021/12/27 10:48:21;;;;;;;0.30;0.20;;;;;;;;;;4216124;28;20460;-36
2021/12/27 10:50:25;;;;;;;0.38;0.30;;;;;;;;;;4216290;28;20447;-34
2021/12/27 10:52:38;;;;;;;0.30;0.30;;;;;;;;;;4195833;28;20036;-35
2021/12/27 10:54:40;;;;;;;0.30;0.20;;;;;;;;;;4199406;28;20105;-35
2021/12/27 10:56:53;;;;;;;0.40;0.40;;;;;;;;;;4188588;28;20098;-34
2021/12/27 10:58:57;;;;;;;0.40;0.30;;;;;;;;;;4215401;28;20535;-35
2021/12/27 11:01:00;;;;;;;1.20;0.30;;;;;;;;;;4186726;28;20098;-35
2021/12/27 11:03:02;;;;;;;0.40;0.40;;;;;;;;;;4197348;28;20048;-34
2021/12/27 11:05:14;;;;;;;0.40;0.30;;;;;;;;;;4210628;28;20064;-36
2021/12/27 11:07:15;;;;;;;0.40;0.30;;;;;;;;;;4198340;28;20457;-34
2021/12/27 11:09:17;;;;;;;0.30;0.30;;;;;;;;;;4215955;28;20097;-35
2021/12/27 11:11:23;;;;;;;0.55;0.30;;;;;;;;;;4215657;28;20055;-34
2021/12/27 11:13:25;;;;;;;0.30;0.30;;;;;;;;;;4215693;28;20211;-35
2021/12/27 11:15:28;;;;;;;0.40;0.35;;;;;;;;;;4211645;28;20052;-34
2021/12/27 11:17:29;;;;;;;0.50;0.22;;;;;;;;;;4210447;28;20048;-35
2021/12/27 11:19:30;;;;;;;0.25;0.25;;;;;;;;;;4208706;28;20090;-35
2021/12/27 11:21:36;;;;;;;1.38;0.40;;;;;;;;;;4181090;28;20080;-35
2021/12/27 11:23:37;;;;;;;0.30;0.30;;;;;;;;;;4194399;28;20064;-35
2021/12/27 11:25:39;;;;;;;0.38;0.38;;;;;;;;;;4198431;28;20048;-35
2021/12/27 11:27:40;;;;;;;0.60;0.50;;;;;;;;;;4213696;28;20055;-35
2021/12/27 11:29:41;;;;;;;0.30;0.30;;;;;;;;;;4212730;28;20048;-33
2021/12/27 11:31:44;;;;;;;0.47;0.40;;;;;;;;;;4204890;28;20039;-34
2021/12/27 11:33:56;;;;;;;0.50;0.40;;;;;;;;;;4232673;28;20051;-34
2021/12/27 11:35:57;;;;;;;0.57;0.40;;;;;;;;;;4205192;28;20198;-35
2021/12/27 11:38:00;;;;;;;0.68;0.40;;;;;;;;;;4214867;28;20052;-34
2021/12/27 11:40:03;;;;;;;0.52;0.40;;;;;;;;;;4215169;28;20397;-34
2021/12/27 11:42:06;;;;;;;0.47;0.20;;;;;;;;;;4215330;28;20040;-34
2021/12/27 11:44:08;;;;;;;1.95;0.32;;;;;;;;;;4215548;28;20117;-34
2021/12/27 11:46:09;;;;;;;0.60;0.47;;;;;;;;;;4215179;28;20063;-35
2021/12/27 11:48:12;;;;;;;1.25;0.60;;;;;;;;;;4224677;28;20056;-34
2021/12/27 11:50:14;;;;;;;0.52;0.40;;;;;;;;;;4225123;28;20078;-34
2021/12/27 11:52:15;;;;;;;0.43;0.40;;;;;;;;;;4214646;28;20052;-36
2021/12/27 11:54:30;;;;;;;0.80;0.60;;;;;;;;;;4197337;28;20118;-34
2021/12/27 11:56:37;;;;;;;0.60;0.47;;;;;;;;;;4214744;28;20051;-34
2021/12/27 11:58:39;;;;;;;0.65;0.40;;;;;;;;;;4215142;28;20048;-34
2021/12/27 12:00:40;;;;;;;0.63;0.40;;;;;;;;;;4214505;28;20048;-34
2021/12/27 12:02:41;;;;;;;0.47;0.40;;;;;;;;;;4212877;28;20455;-33
2021/12/27 12:04:46;;;;;;;0.30;0.30;;;;;;;;;;4214051;28;20044;-33
2021/12/27 12:06:47;;;;;;;0.47;0.43;;;;;;;;;;4214150;28;20097;-34
2021/12/27 12:08:50;;;;;;;0.93;0.40;;;;;;;;;;4214232;28;20048;-34
2021/12/27 12:10:56;;;;;;;0.30;0.30;;;;;;;;;;4216095;28;20487;-34
2021/12/27 12:13:17;;;;;;;0.32;0.32;;;;;;;;;;4214815;28;20059;-34
2021/12/27 12:15:26;;;;;;;0.50;0.38;;;;;;;;;;4230110;28;20052;-34
2021/12/27 12:17:37;;;;;;;0.33;0.30;;;;;;;;;;4231919;28;20101;-35